createdAt,value
2019-02-04T00:00:21.647Z,84.89
2019-02-04T00:01:21.779Z,84.70
2019-02-04T00:02:21.906Z,84.89
2019-02-04T00:03:22.036Z,84.61
2019-02-04T00:04:22.167Z,85.17
2019-02-04T00:05:22.287Z,84.61
2019-02-04T00:06:22.456Z,84.51
2019-02-04T00:07:22.575Z,84.80
2019-02-04T00:08:22.707Z,84.99
2019-02-04T00:09:22.831Z,84.61
2019-02-04T00:10:22.959Z,84.23
2019-02-04T00:11:23.087Z,84.61
2019-02-04T00:12:23.209Z,84.70
2019-02-04T00:13:23.340Z,84.13
2019-02-04T00:14:23.462Z,84.51
2019-02-04T00:15:23.582Z,84.70
2019-02-04T00:16:23.715Z,84.13
2019-02-04T00:17:23.842Z,84.70
2019-02-04T00:18:23.974Z,84.23
2019-02-04T00:19:24.111Z,84.04
2019-02-04T00:20:24.232Z,84.61
2019-02-04T00:21:24.381Z,84.70
2019-02-04T00:22:24.516Z,84.61
2019-02-04T00:23:24.644Z,84.04
2019-02-04T00:24:24.770Z,84.04
2019-02-04T00:25:24.899Z,84.61
2019-02-04T00:26:25.030Z,84.42
2019-02-04T00:27:25.159Z,84.23
2019-02-04T00:28:25.283Z,84.99
2019-02-04T00:29:25.412Z,84.28
2019-02-04T00:30:25.543Z,84.51
2019-02-04T00:31:25.680Z,84.61
2019-02-04T00:32:25.797Z,84.28
2019-02-04T00:33:25.925Z,84.19
2019-02-04T00:34:26.058Z,84.23
2019-02-04T00:35:26.178Z,84.66
2019-02-04T00:36:26.315Z,84.80
2019-02-04T00:37:26.476Z,84.70
2019-02-04T00:38:26.565Z,84.89
2019-02-04T00:39:26.693Z,84.66
2019-02-04T00:40:26.820Z,84.89
2019-02-04T00:41:26.944Z,84.89
2019-02-04T00:42:27.070Z,84.66
2019-02-04T00:43:27.195Z,84.09
2019-02-04T00:44:27.329Z,84.28
2019-02-04T00:45:27.461Z,84.47
2019-02-04T00:46:27.601Z,84.19
2019-02-04T00:47:27.718Z,84.28
2019-02-04T00:48:27.848Z,84.38
2019-02-04T00:49:27.980Z,84.38
2019-02-04T00:50:28.115Z,84.19
2019-02-04T00:51:28.248Z,83.90
2019-02-04T00:52:28.375Z,83.81
2019-02-04T00:53:28.502Z,83.90
2019-02-04T00:54:28.642Z,83.90
2019-02-04T00:55:28.770Z,83.90
2019-02-04T00:56:28.897Z,84.38
2019-02-04T00:57:29.020Z,84.09
2019-02-04T00:58:29.145Z,84.28
2019-02-04T00:59:29.276Z,84.47
2019-02-04T01:00:29.396Z,84.38
2019-02-04T01:01:30.287Z,84.19
2019-02-04T01:02:29.683Z,84.09
2019-02-04T01:03:29.818Z,83.90
2019-02-04T01:04:29.941Z,84.85
2019-02-04T01:05:30.074Z,84.56
2019-02-04T01:06:30.194Z,84.94
2019-02-04T01:07:30.335Z,84.94
2019-02-04T01:08:30.460Z,85.70
2019-02-04T01:09:30.582Z,85.89
2019-02-04T01:10:30.708Z,86.08
2019-02-04T01:11:30.838Z,86.18
2019-02-04T01:12:30.973Z,85.32
2019-02-04T01:13:31.101Z,85.61
2019-02-04T01:14:31.230Z,85.80
2019-02-04T01:15:31.367Z,85.61
2019-02-04T01:16:31.491Z,85.23
2019-02-04T01:17:31.616Z,84.75
2019-02-04T01:18:31.755Z,84.66
2019-02-04T01:19:31.881Z,84.66
2019-02-04T01:20:32.002Z,84.75
2019-02-04T01:21:32.214Z,84.47
2019-02-04T01:22:32.255Z,84.56
2019-02-04T01:23:32.384Z,84.75
2019-02-04T01:24:32.510Z,84.66
2019-02-04T01:25:32.638Z,84.94
2019-02-04T01:26:32.768Z,84.75
2019-02-04T01:27:32.891Z,84.94
2019-02-04T01:28:33.015Z,84.85
2019-02-04T01:29:33.144Z,84.38
2019-02-04T01:30:33.275Z,84.38
2019-02-04T01:31:33.406Z,84.66
2019-02-04T01:32:33.530Z,85.23
2019-02-04T01:33:33.662Z,85.13
2019-02-04T01:34:33.793Z,85.13
2019-02-04T01:35:33.930Z,85.19
2019-02-04T01:36:34.053Z,85.04
2019-02-04T01:37:34.175Z,84.75
2019-02-04T01:38:34.307Z,85.13
2019-02-04T01:39:34.437Z,85.04
2019-02-04T01:40:34.564Z,85.00
2019-02-04T01:41:34.687Z,84.75
2019-02-04T01:42:34.814Z,85.23
2019-02-04T01:43:34.941Z,85.51
2019-02-04T01:44:35.065Z,85.13
2019-02-04T01:45:35.200Z,85.42
2019-02-04T01:46:35.324Z,85.32
2019-02-04T01:47:35.446Z,84.94
2019-02-04T01:48:35.575Z,84.85
2019-02-04T01:49:35.711Z,85.13
2019-02-04T01:50:35.836Z,85.70
2019-02-04T01:51:35.968Z,85.23
2019-02-04T01:52:36.101Z,85.04
2019-02-04T01:53:36.225Z,85.32
2019-02-04T01:54:36.346Z,85.13
2019-02-04T01:55:36.470Z,85.23
2019-02-04T01:56:36.598Z,85.23
2019-02-04T01:57:36.726Z,84.85
2019-02-04T01:58:36.857Z,85.23
2019-02-04T01:59:36.975Z,84.94
2019-02-04T02:00:37.101Z,85.23
2019-02-04T02:01:37.227Z,84.75
2019-02-04T02:02:37.360Z,85.13
2019-02-04T02:03:37.488Z,84.47
2019-02-04T02:04:37.611Z,85.13
2019-02-04T02:05:37.740Z,85.13
2019-02-04T02:06:38.783Z,84.94
2019-02-04T02:07:38.055Z,85.04
2019-02-04T02:08:38.184Z,85.04
2019-02-04T02:09:39.271Z,84.94
2019-02-04T02:10:38.446Z,84.52
2019-02-04T02:11:38.573Z,83.95
2019-02-04T02:12:38.699Z,84.33
2019-02-04T02:13:38.829Z,84.61
2019-02-04T02:14:38.949Z,85.09
2019-02-04T02:15:39.164Z,85.75
2019-02-04T02:16:39.198Z,85.28
2019-02-04T02:17:39.331Z,85.94
2019-02-04T02:18:39.456Z,86.13
2019-02-04T02:19:39.583Z,86.22
2019-02-04T02:20:39.713Z,86.22
2019-02-04T02:21:39.848Z,86.70
2019-02-04T02:22:39.975Z,86.04
2019-02-04T02:23:40.119Z,86.27
2019-02-04T02:24:40.248Z,86.65
2019-02-04T02:25:40.386Z,86.46
2019-02-04T02:26:40.538Z,86.60
2019-02-04T02:27:40.667Z,86.27
2019-02-04T02:28:40.792Z,85.99
2019-02-04T02:29:40.928Z,86.46
2019-02-04T02:30:41.061Z,85.70
2019-02-04T02:31:41.183Z,85.00
2019-02-04T02:32:41.307Z,85.04
2019-02-04T02:33:41.431Z,85.13
2019-02-04T02:34:41.620Z,85.23
2019-02-04T02:35:41.687Z,85.19
2019-02-04T02:36:41.810Z,84.94
2019-02-04T02:37:41.935Z,85.28
2019-02-04T02:38:42.052Z,85.38
2019-02-04T02:39:42.185Z,85.09
2019-02-04T02:40:42.307Z,85.28
2019-02-04T02:41:42.438Z,84.94
2019-02-04T02:42:42.571Z,85.13
2019-02-04T02:43:42.694Z,85.09
2019-02-04T02:44:42.826Z,85.61
2019-02-04T02:45:42.947Z,84.94
2019-02-04T02:46:43.081Z,85.13
2019-02-04T02:47:43.201Z,84.94
2019-02-04T02:48:43.326Z,84.90
2019-02-04T02:49:43.450Z,84.90
2019-02-04T02:50:43.575Z,85.04
2019-02-04T02:51:43.704Z,85.19
2019-02-04T02:52:43.827Z,85.04
2019-02-04T02:53:43.958Z,85.23
2019-02-04T02:54:44.087Z,85.80
2019-02-04T02:55:44.233Z,85.66
2019-02-04T02:56:44.342Z,85.61
2019-02-04T02:57:44.537Z,85.66
2019-02-04T02:58:44.655Z,84.90
2019-02-04T02:59:44.733Z,85.00
2019-02-04T03:00:44.863Z,85.19
2019-02-04T03:01:44.989Z,85.51
2019-02-04T03:02:45.126Z,84.90
2019-02-04T03:03:45.244Z,85.28
2019-02-04T03:04:45.367Z,85.19
2019-02-04T03:05:45.493Z,85.09
2019-02-04T03:06:45.620Z,85.09
2019-02-04T03:07:45.749Z,84.81
2019-02-04T03:08:45.873Z,84.71
2019-02-04T03:09:46.001Z,84.52
2019-02-04T03:10:46.131Z,84.81
2019-02-04T03:11:46.251Z,84.90
2019-02-04T03:12:46.380Z,84.81
2019-02-04T03:13:46.504Z,84.33
2019-02-04T03:14:46.639Z,84.71
2019-02-04T03:15:46.772Z,84.81
2019-02-04T03:16:46.897Z,84.81
2019-02-04T03:17:52.011Z,85.00
2019-02-04T03:18:47.145Z,84.61
2019-02-04T03:19:47.270Z,84.71
2019-02-04T03:20:47.398Z,85.00
2019-02-04T03:21:47.520Z,84.71
2019-02-04T03:22:47.654Z,84.90
2019-02-04T03:23:47.772Z,85.09
2019-02-04T03:24:47.899Z,85.28
2019-02-04T03:25:48.027Z,85.00
2019-02-04T03:26:48.152Z,84.71
2019-02-04T03:27:48.285Z,84.61
2019-02-04T03:28:48.409Z,84.90
2019-02-04T03:29:48.536Z,84.71
2019-02-04T03:30:48.659Z,84.52
2019-02-04T03:31:48.822Z,84.61
2019-02-04T03:32:48.914Z,84.71
2019-02-04T03:33:49.039Z,84.61
2019-02-04T03:34:49.169Z,84.42
2019-02-04T03:35:49.297Z,84.90
2019-02-04T03:36:49.425Z,84.81
2019-02-04T03:37:52.226Z,85.38
2019-02-04T03:38:49.682Z,85.00
2019-02-04T03:39:49.805Z,85.00
2019-02-04T03:40:49.935Z,85.00
2019-02-04T03:41:50.060Z,85.57
2019-02-04T03:42:50.188Z,85.66
2019-02-04T03:43:50.314Z,85.28
2019-02-04T03:44:50.440Z,86.13
2019-02-04T03:45:50.567Z,86.04
2019-02-04T03:46:50.696Z,86.13
2019-02-04T03:48:03.772Z,85.94
2019-02-04T03:48:50.951Z,86.13
2019-02-04T03:49:51.082Z,86.32
2019-02-04T03:50:51.215Z,86.22
2019-02-04T03:51:51.339Z,86.51
2019-02-04T03:52:51.467Z,86.89
2019-02-04T03:53:51.593Z,86.60
2019-02-04T03:54:51.719Z,86.60
2019-02-04T03:55:51.847Z,86.98
2019-02-04T03:56:51.971Z,86.79
2019-02-04T03:57:52.098Z,86.22
2019-02-04T03:58:52.218Z,86.41
2019-02-04T03:59:52.347Z,86.41
2019-02-04T04:00:52.471Z,86.04
2019-02-04T04:01:52.601Z,85.85
2019-02-04T04:02:52.765Z,86.13
2019-02-04T04:03:52.890Z,86.04
2019-02-04T04:04:53.018Z,86.32
2019-02-04T04:05:53.147Z,86.32
2019-02-04T04:06:53.267Z,86.89
2019-02-04T04:07:53.740Z,87.08
2019-02-04T04:08:53.525Z,88.07
2019-02-04T04:09:53.649Z,88.07
2019-02-04T04:10:53.789Z,88.83
2019-02-04T04:11:53.917Z,88.87
2019-02-04T04:12:54.047Z,88.59
2019-02-04T04:13:54.170Z,88.64
2019-02-04T04:14:54.295Z,88.36
2019-02-04T04:15:54.425Z,89.06
2019-02-04T04:16:54.563Z,88.83
2019-02-04T04:17:54.687Z,89.02
2019-02-04T04:18:54.813Z,88.93
2019-02-04T04:19:54.941Z,89.35
2019-02-04T04:20:55.064Z,89.16
2019-02-04T04:21:55.193Z,89.35
2019-02-04T04:22:55.320Z,88.87
2019-02-04T04:23:55.439Z,88.78
2019-02-04T04:24:55.563Z,88.87
2019-02-04T04:25:55.695Z,88.59
2019-02-04T04:26:55.817Z,88.59
2019-02-04T04:27:55.957Z,88.40
2019-02-04T04:28:56.078Z,88.59
2019-02-04T04:29:56.205Z,88.97
2019-02-04T04:30:56.330Z,88.78
2019-02-04T04:31:56.457Z,88.68
2019-02-04T04:32:56.583Z,88.49
2019-02-04T04:33:56.708Z,88.12
2019-02-04T04:34:56.838Z,88.40
2019-02-04T04:35:56.961Z,87.84
2019-02-04T04:36:57.088Z,87.98
2019-02-04T04:37:57.225Z,88.17
2019-02-04T04:38:57.349Z,87.88
2019-02-04T04:39:57.481Z,87.98
2019-02-04T04:40:57.604Z,87.98
2019-02-04T04:41:57.732Z,88.36
2019-02-04T04:42:57.864Z,88.74
2019-02-04T04:43:57.997Z,88.83
2019-02-04T04:44:58.122Z,89.31
2019-02-04T04:45:58.251Z,89.21
2019-02-04T04:46:58.376Z,89.02
2019-02-04T04:47:58.505Z,89.06
2019-02-04T04:48:58.635Z,88.55
2019-02-04T04:49:58.755Z,88.40
2019-02-04T04:50:58.885Z,88.07
2019-02-04T04:51:59.012Z,87.79
2019-02-04T04:52:59.136Z,87.84
2019-02-04T04:53:59.266Z,87.41
2019-02-04T04:54:59.385Z,88.17
2019-02-04T04:55:59.511Z,87.55
2019-02-04T04:56:59.637Z,87.46
2019-02-04T04:57:59.761Z,87.36
2019-02-04T04:58:59.891Z,87.46
2019-02-04T05:00:00.145Z,87.08
2019-02-04T05:01:00.146Z,86.89
2019-02-04T05:02:00.272Z,86.22
2019-02-04T05:03:00.400Z,86.60
2019-02-04T05:04:00.529Z,86.18
2019-02-04T05:05:00.654Z,86.22
2019-02-04T05:06:00.773Z,86.56
2019-02-04T05:07:00.901Z,86.56
2019-02-04T05:08:01.031Z,87.04
2019-02-04T05:09:01.154Z,86.85
2019-02-04T05:10:01.282Z,87.41
2019-02-04T05:11:01.405Z,87.98
2019-02-04T05:12:01.532Z,87.98
2019-02-04T05:13:01.658Z,88.45
2019-02-04T05:14:01.785Z,88.93
2019-02-04T05:15:01.910Z,89.21
2019-02-04T05:16:02.044Z,89.59
2019-02-04T05:17:02.169Z,89.40
2019-02-04T05:18:02.311Z,90.44
2019-02-04T05:19:02.429Z,90.34
2019-02-04T05:20:02.548Z,90.34
2019-02-04T05:21:02.672Z,90.53
2019-02-04T05:22:02.801Z,90.63
2019-02-04T05:23:02.927Z,90.34
2019-02-04T05:24:03.059Z,90.82
2019-02-04T05:25:03.181Z,90.63
2019-02-04T05:26:03.306Z,90.44
2019-02-04T05:27:03.440Z,90.16
2019-02-04T05:28:03.561Z,90.44
2019-02-04T05:29:03.695Z,89.78
2019-02-04T05:30:03.821Z,89.87
2019-02-04T05:31:03.944Z,90.06
2019-02-04T05:32:04.072Z,89.87
2019-02-04T05:33:04.193Z,88.83
2019-02-04T05:34:04.397Z,88.74
2019-02-04T05:35:04.450Z,88.83
2019-02-04T05:36:04.572Z,88.83
2019-02-04T05:37:04.701Z,88.07
2019-02-04T05:38:04.824Z,87.98
2019-02-04T05:39:04.946Z,88.64
2019-02-04T05:40:05.073Z,87.60
2019-02-04T05:41:05.211Z,88.26
2019-02-04T05:42:05.341Z,87.79
2019-02-04T05:43:05.460Z,87.79
2019-02-04T05:44:05.596Z,87.88
2019-02-04T05:45:05.716Z,87.88
2019-02-04T05:46:05.844Z,88.45
2019-02-04T05:47:05.971Z,88.64
2019-02-04T05:48:06.097Z,88.74
2019-02-04T05:49:06.231Z,87.88
2019-02-04T05:50:06.353Z,87.98
2019-02-04T05:51:06.482Z,87.88
2019-02-04T05:52:06.609Z,87.98
2019-02-04T05:53:06.740Z,87.98
2019-02-04T05:54:06.857Z,88.74
2019-02-04T05:55:06.986Z,89.40
2019-02-04T05:56:07.109Z,88.74
2019-02-04T05:57:07.236Z,88.64
2019-02-04T05:58:07.366Z,88.93
2019-02-04T05:59:07.491Z,89.12
2019-02-04T06:00:07.620Z,90.06
2019-02-04T06:01:07.745Z,89.87
2019-02-04T06:02:09.465Z,90.82
2019-02-04T06:03:07.999Z,90.63
2019-02-04T06:04:08.126Z,90.25
2019-02-04T06:05:08.260Z,91.20
2019-02-04T06:06:08.376Z,90.96
2019-02-04T06:07:08.504Z,91.67
2019-02-04T06:08:08.624Z,91.62
2019-02-04T06:09:08.747Z,91.72
2019-02-04T06:10:08.871Z,91.91
2019-02-04T06:11:09.002Z,92.19
2019-02-04T06:12:09.127Z,92.38
2019-02-04T06:13:09.254Z,92.94
2019-02-04T06:14:09.376Z,92.85
2019-02-04T06:15:09.506Z,92.94
2019-02-04T06:16:09.637Z,92.85
2019-02-04T06:17:09.762Z,92.85
2019-02-04T06:18:09.897Z,93.04
2019-02-04T06:19:10.018Z,92.66
2019-02-04T06:20:10.146Z,92.66
2019-02-04T06:21:10.264Z,92.80
2019-02-04T06:22:10.391Z,93.18
2019-02-04T06:23:10.516Z,93.37
2019-02-04T06:24:10.644Z,93.37
2019-02-04T06:25:10.772Z,93.04
2019-02-04T06:26:10.905Z,92.71
2019-02-04T06:27:11.034Z,93.09
2019-02-04T06:28:11.156Z,92.71
2019-02-04T06:29:11.284Z,92.80
2019-02-04T06:30:11.406Z,92.71
2019-02-04T06:31:11.539Z,92.80
2019-02-04T06:32:11.658Z,92.80
2019-02-04T06:33:11.785Z,92.90
2019-02-04T06:34:11.911Z,93.18
2019-02-04T06:35:12.031Z,92.71
2019-02-04T06:36:12.158Z,92.24
2019-02-04T06:37:12.294Z,92.38
2019-02-04T06:38:12.419Z,92.00
2019-02-04T06:39:12.548Z,92.00
2019-02-04T06:40:12.672Z,91.48
2019-02-04T06:41:12.803Z,91.62
2019-02-04T06:42:12.931Z,91.24
2019-02-04T06:43:13.060Z,91.05
2019-02-04T06:44:13.180Z,90.77
2019-02-04T06:45:13.313Z,90.39
2019-02-04T06:46:13.439Z,90.86
2019-02-04T06:47:13.570Z,91.05
2019-02-04T06:48:13.725Z,90.58
2019-02-04T06:49:13.824Z,90.67
2019-02-04T06:50:13.949Z,90.30
2019-02-04T06:51:14.078Z,90.67
2019-02-04T06:52:14.202Z,90.01
2019-02-04T06:53:14.329Z,90.34
2019-02-04T06:54:14.456Z,90.30
2019-02-04T06:55:14.583Z,90.30
2019-02-04T06:56:14.708Z,90.20
2019-02-04T06:57:14.839Z,90.30
2019-02-04T06:58:14.956Z,90.39
2019-02-04T06:59:15.086Z,90.39
2019-02-04T07:00:15.211Z,90.30
2019-02-04T07:01:15.336Z,89.54
2019-02-04T07:02:15.460Z,89.82
2019-02-04T07:03:15.607Z,90.01
2019-02-04T07:04:15.715Z,89.73
2019-02-04T07:05:15.836Z,89.82
2019-02-04T07:06:15.965Z,89.82
2019-02-04T07:07:16.094Z,89.54
2019-02-04T07:08:16.220Z,90.11
2019-02-04T07:09:16.344Z,89.54
2019-02-04T07:10:16.470Z,90.20
2019-02-04T07:11:16.604Z,90.01
2019-02-04T07:12:16.742Z,89.92
2019-02-04T07:13:16.869Z,90.01
2019-02-04T07:14:17.019Z,90.20
2019-02-04T07:15:17.119Z,89.92
2019-02-04T07:16:17.248Z,89.63
2019-02-04T07:17:17.376Z,90.30
2019-02-04T07:18:17.498Z,89.73
2019-02-04T07:19:24.229Z,89.92
2019-02-04T07:20:17.755Z,89.35
2019-02-04T07:21:20.924Z,89.73
2019-02-04T07:22:17.997Z,89.82
2019-02-04T07:23:18.123Z,90.01
2019-02-04T07:24:18.264Z,90.01
2019-02-04T07:25:18.384Z,90.01
2019-02-04T07:26:18.504Z,89.73
2019-02-04T07:27:18.626Z,89.35
2019-02-04T07:28:18.752Z,89.73
2019-02-04T07:29:18.886Z,90.01
2019-02-04T07:30:19.014Z,89.82
2019-02-04T07:31:19.142Z,90.20
2019-02-04T07:32:19.272Z,90.53
2019-02-04T07:33:19.402Z,90.67
2019-02-04T07:34:19.528Z,90.96
2019-02-04T07:35:19.649Z,91.15
2019-02-04T07:36:19.772Z,91.24
2019-02-04T07:37:19.897Z,91.43
2019-02-04T07:38:20.031Z,91.34
2019-02-04T07:39:20.164Z,90.77
2019-02-04T07:40:20.292Z,91.10
2019-02-04T07:41:20.419Z,91.10
2019-02-04T07:42:20.543Z,91.29
2019-02-04T07:43:20.673Z,91.10
2019-02-04T07:44:20.804Z,91.15
2019-02-04T07:45:20.924Z,91.01
2019-02-04T07:46:21.051Z,91.01
2019-02-04T07:47:21.178Z,90.91
2019-02-04T07:48:21.305Z,91.58
2019-02-04T07:49:21.447Z,91.20
2019-02-04T07:50:21.575Z,91.67
2019-02-04T07:51:21.704Z,91.58
2019-02-04T07:52:21.829Z,91.67
2019-02-04T07:53:21.958Z,91.67
2019-02-04T07:54:22.188Z,91.72
2019-02-04T07:55:22.205Z,91.86
2019-02-04T07:56:22.332Z,91.86
2019-02-04T07:57:22.456Z,91.58
2019-02-04T07:58:22.581Z,91.58
2019-02-04T07:59:22.713Z,91.77
2019-02-04T08:00:22.836Z,91.67
2019-02-04T08:01:22.962Z,91.86
2019-02-04T08:02:23.090Z,91.96
2019-02-04T08:03:23.218Z,91.77
2019-02-04T08:04:23.345Z,92.14
2019-02-04T08:05:23.467Z,91.96
2019-02-04T08:06:23.597Z,92.05
2019-02-04T08:07:23.716Z,91.96
2019-02-04T08:08:23.840Z,92.05
2019-02-04T08:09:23.968Z,92.14
2019-02-04T08:10:24.095Z,92.14
2019-02-04T08:11:24.223Z,92.43
2019-02-04T08:12:24.355Z,92.24
2019-02-04T08:13:24.479Z,91.86
2019-02-04T08:14:24.620Z,91.96
2019-02-04T08:15:24.749Z,91.96
2019-02-04T08:16:24.865Z,91.96
2019-02-04T08:17:24.996Z,92.43
2019-02-04T08:18:25.126Z,92.14
2019-02-04T08:19:25.363Z,91.96
2019-02-04T08:20:25.390Z,93.18
2019-02-04T08:21:25.515Z,92.90
2019-02-04T08:22:25.644Z,92.99
2019-02-04T08:23:25.767Z,93.51
2019-02-04T08:24:25.904Z,93.61
2019-02-04T08:25:26.409Z,93.61
2019-02-04T08:26:26.159Z,93.23
2019-02-04T08:27:26.279Z,93.23
2019-02-04T08:28:26.413Z,93.04
2019-02-04T08:29:26.541Z,93.04
2019-02-04T08:30:26.666Z,93.32
2019-02-04T08:31:26.794Z,92.19
2019-02-04T08:32:26.921Z,92.38
2019-02-04T08:33:27.051Z,92.10
2019-02-04T08:34:27.184Z,91.76
2019-02-04T08:35:27.310Z,91.86
2019-02-04T08:36:27.451Z,91.48
2019-02-04T08:37:27.573Z,91.00
2019-02-04T08:38:27.700Z,91.48
2019-02-04T08:39:27.827Z,91.29
2019-02-04T08:40:27.955Z,91.29
2019-02-04T08:41:28.089Z,91.19
2019-02-04T08:42:28.212Z,91.00
2019-02-04T08:43:28.340Z,90.63
2019-02-04T08:44:28.465Z,90.72
2019-02-04T08:45:28.590Z,90.72
2019-02-04T08:46:28.713Z,90.44
2019-02-04T08:47:28.827Z,90.81
2019-02-04T08:48:28.970Z,90.63
2019-02-04T08:49:29.097Z,90.72
2019-02-04T08:50:29.223Z,90.63
2019-02-04T08:51:29.354Z,90.91
2019-02-04T08:52:29.483Z,91.00
2019-02-04T08:53:29.610Z,90.34
2019-02-04T08:54:29.735Z,89.87
2019-02-04T08:55:29.875Z,90.44
2019-02-04T08:56:30.000Z,90.01
2019-02-04T08:57:30.116Z,89.96
2019-02-04T08:58:30.249Z,89.58
2019-02-04T08:59:30.373Z,90.06
2019-02-04T09:00:30.504Z,90.25
2019-02-04T09:01:30.631Z,90.10
2019-02-04T09:02:30.762Z,90.20
2019-02-04T09:03:30.891Z,91.05
2019-02-04T09:04:31.026Z,90.01
2019-02-04T09:05:31.156Z,89.91
2019-02-04T09:06:31.278Z,90.20
2019-02-04T09:07:31.412Z,89.91
2019-02-04T09:08:31.536Z,89.25
2019-02-04T09:09:31.668Z,89.63
2019-02-04T09:10:31.801Z,89.25
2019-02-04T09:11:31.925Z,88.96
2019-02-04T09:12:32.049Z,88.30
2019-02-04T09:13:32.179Z,88.78
2019-02-04T09:14:32.310Z,88.40
2019-02-04T09:15:32.458Z,88.96
2019-02-04T09:16:32.569Z,88.59
2019-02-04T09:17:32.704Z,88.59
2019-02-04T09:18:44.133Z,88.49
2019-02-04T09:19:32.977Z,88.59
2019-02-04T09:20:33.103Z,88.87
2019-02-04T09:21:33.244Z,88.59
2019-02-04T09:22:33.370Z,88.68
2019-02-04T09:23:33.504Z,88.49
2019-02-04T09:24:33.629Z,88.87
2019-02-04T09:25:33.755Z,88.30
2019-02-04T09:26:33.886Z,88.59
2019-02-04T09:27:34.010Z,88.87
2019-02-04T09:28:34.138Z,89.53
2019-02-04T09:29:34.261Z,89.34
2019-02-04T09:30:34.390Z,89.72
2019-02-04T09:31:35.273Z,89.63
2019-02-04T09:32:34.621Z,89.63
2019-02-04T09:33:34.742Z,90.10
2019-02-04T09:34:34.874Z,89.44
2019-02-04T09:35:35.008Z,89.82
2019-02-04T09:36:35.129Z,90.10
2019-02-04T09:37:35.253Z,89.91
2019-02-04T09:38:35.378Z,89.63
2019-02-04T09:39:35.511Z,89.91
2019-02-04T09:40:35.638Z,90.01
2019-02-04T09:41:35.770Z,90.10
2019-02-04T09:42:35.896Z,90.01
2019-02-04T09:43:36.022Z,89.82
2019-02-04T09:44:36.160Z,90.01
2019-02-04T09:45:36.305Z,90.01
2019-02-04T09:46:36.420Z,90.20
2019-02-04T09:47:36.552Z,90.20
2019-02-04T09:48:36.739Z,90.29
2019-02-04T09:49:36.750Z,90.20
2019-02-04T09:50:36.881Z,90.39
2019-02-04T09:51:37.018Z,90.20
2019-02-04T09:52:37.144Z,89.82
2019-02-04T09:53:37.269Z,90.39
2019-02-04T09:54:37.393Z,90.86
2019-02-04T09:55:37.520Z,90.01
2019-02-04T09:56:37.646Z,89.91
2019-02-04T09:57:37.775Z,90.01
2019-02-04T09:58:37.897Z,90.10
2019-02-04T09:59:38.026Z,90.01
2019-02-04T10:00:38.152Z,89.91
2019-02-04T10:01:38.281Z,89.91
2019-02-04T10:02:38.407Z,89.63
2019-02-04T10:03:38.534Z,90.20
2019-02-04T10:04:38.661Z,90.39
2019-02-04T10:05:38.787Z,90.29
2019-02-04T10:06:38.924Z,90.01
2019-02-04T10:07:39.046Z,90.10
2019-02-04T10:08:39.176Z,89.53
2019-02-04T10:09:39.309Z,89.15
2019-02-04T10:10:39.434Z,89.25
2019-02-04T10:11:39.561Z,89.34
2019-02-04T10:12:39.686Z,89.53
2019-02-04T10:13:39.814Z,89.25
2019-02-04T10:14:39.939Z,89.58
2019-02-04T10:15:40.086Z,89.39
2019-02-04T10:16:40.201Z,89.11
2019-02-04T10:17:40.333Z,88.35
2019-02-04T10:18:40.482Z,88.73
2019-02-04T10:19:40.624Z,88.16
2019-02-04T10:20:40.743Z,88.16
2019-02-04T10:21:40.851Z,87.87
2019-02-04T10:22:40.977Z,87.87
2019-02-04T10:23:41.180Z,87.59
2019-02-04T10:24:41.231Z,87.49
2019-02-04T10:25:41.371Z,87.12
2019-02-04T10:26:41.594Z,87.21
2019-02-04T10:27:41.625Z,87.25
2019-02-04T10:28:41.741Z,86.64
2019-02-04T10:29:41.877Z,86.49
2019-02-04T10:30:41.997Z,86.30
2019-02-04T10:31:42.127Z,86.21
2019-02-04T10:32:44.365Z,86.40
2019-02-04T10:33:43.292Z,85.83
2019-02-04T10:34:42.547Z,85.88
2019-02-04T10:35:42.642Z,85.64
2019-02-04T10:36:42.812Z,86.30
2019-02-04T10:37:42.943Z,86.02
2019-02-04T10:38:43.036Z,85.55
2019-02-04T10:39:43.176Z,85.17
2019-02-04T10:40:43.339Z,85.74
2019-02-04T10:41:43.454Z,85.07
2019-02-04T10:42:43.585Z,84.78
2019-02-04T10:43:43.718Z,84.12
2019-02-04T10:44:43.812Z,85.07
2019-02-04T10:45:43.961Z,85.26
2019-02-04T10:46:44.073Z,85.07
2019-02-04T10:47:44.251Z,85.07
2019-02-04T10:48:44.361Z,84.22
2019-02-04T10:49:44.495Z,84.12
2019-02-04T10:50:46.689Z,83.69
2019-02-04T10:51:44.777Z,83.03
2019-02-04T10:52:44.893Z,82.08
2019-02-04T10:53:45.042Z,82.08
2019-02-04T10:54:45.168Z,81.79
2019-02-04T10:55:45.363Z,81.32
2019-02-04T10:56:45.435Z,81.13
2019-02-04T10:57:45.570Z,80.32
2019-02-04T10:58:45.721Z,80.32
2019-02-04T10:59:45.833Z,79.46
2019-02-04T11:00:45.979Z,79.50
2019-02-04T11:01:46.106Z,78.27
2019-02-04T11:02:46.256Z,76.93
2019-02-04T11:03:46.385Z,76.93
2019-02-04T11:04:46.543Z,76.93
2019-02-04T11:05:46.644Z,77.18
2019-02-04T11:06:46.772Z,77.89
2019-02-04T11:07:46.911Z,77.22
2019-02-04T11:08:47.071Z,77.03
2019-02-04T11:09:47.185Z,76.84
2019-02-04T11:10:47.313Z,77.79
2019-02-04T11:11:47.581Z,78.32
2019-02-04T11:12:47.610Z,78.99
2019-02-04T11:13:47.750Z,78.13
2019-02-04T11:14:47.902Z,77.22
2019-02-04T11:15:48.029Z,76.93
2019-02-04T11:16:48.130Z,76.37
2019-02-04T11:17:48.266Z,75.74
2019-02-04T11:18:48.389Z,74.27
2019-02-04T11:19:48.589Z,74.47
2019-02-04T11:20:57.743Z,74.88
2019-02-04T11:21:48.869Z,74.51
2019-02-04T11:22:49.028Z,73.93
2019-02-04T11:23:49.141Z,73.93
2019-02-04T11:24:49.278Z,74.51
2019-02-04T11:25:49.428Z,73.74
2019-02-04T11:26:49.601Z,73.27
2019-02-04T11:27:49.746Z,73.08
2019-02-04T11:28:49.860Z,73.36
2019-02-04T11:29:50.043Z,72.99
2019-02-04T11:30:50.150Z,73.55
2019-02-04T11:31:50.295Z,72.70
2019-02-04T11:32:50.383Z,72.32
2019-02-04T11:33:50.514Z,73.23
2019-02-04T11:34:50.666Z,73.74
2019-02-04T11:35:51.047Z,73.46
2019-02-04T11:36:50.940Z,73.36
2019-02-04T11:37:51.063Z,73.18
2019-02-04T11:38:51.232Z,73.65
2019-02-04T11:39:51.370Z,73.61
2019-02-04T11:40:51.524Z,73.90
2019-02-04T11:41:51.629Z,73.84
2019-02-04T11:42:51.794Z,73.08
2019-02-04T11:43:51.904Z,73.55
2019-02-04T11:44:52.020Z,72.41
2019-02-04T11:45:54.877Z,71.56
2019-02-04T11:46:52.334Z,70.89
2019-02-04T11:47:52.453Z,71.04
2019-02-04T11:48:52.545Z,72.28
2019-02-04T11:49:52.684Z,72.85
2019-02-04T11:50:52.820Z,72.85
2019-02-04T11:51:52.958Z,71.62
2019-02-04T11:52:53.095Z,71.62
2019-02-04T11:53:53.226Z,71.90
2019-02-04T11:54:53.367Z,72.09
2019-02-04T11:55:53.499Z,72.28
2019-02-04T11:56:53.639Z,72.44
2019-02-04T11:57:53.778Z,72.63
2019-02-04T11:58:53.920Z,72.63
2019-02-04T11:59:54.053Z,72.81
2019-02-04T12:00:54.190Z,73.10
2019-02-04T12:01:54.324Z,72.81
2019-02-04T12:02:54.466Z,73.48
2019-02-04T12:03:54.599Z,73.96
2019-02-04T12:04:54.731Z,74.05
2019-02-04T12:05:54.863Z,74.33
2019-02-04T12:06:55.003Z,74.43
2019-02-04T12:07:55.140Z,73.96
2019-02-04T12:08:55.269Z,73.96
2019-02-04T12:09:55.404Z,73.76
2019-02-04T12:10:55.535Z,73.71
2019-02-04T12:11:55.876Z,73.57
2019-02-04T12:12:55.810Z,72.72
2019-02-04T12:13:55.946Z,72.63
2019-02-04T12:14:56.075Z,72.56
2019-02-04T12:15:56.208Z,72.66
2019-02-04T12:16:59.058Z,72.47
2019-02-04T12:17:56.482Z,72.56
2019-02-04T12:18:56.617Z,72.09
2019-02-04T12:19:56.742Z,71.81
2019-02-04T12:20:56.901Z,70.06
2019-02-04T12:21:57.021Z,71.01
2019-02-04T12:22:57.164Z,70.57
2019-02-04T12:23:57.298Z,71.04
2019-02-04T12:24:57.426Z,71.01
2019-02-04T12:25:57.566Z,71.58
2019-02-04T12:26:57.698Z,71.86
2019-02-04T12:27:57.834Z,71.48
2019-02-04T12:28:58.053Z,71.30
2019-02-04T12:29:58.108Z,72.28
2019-02-04T12:30:58.245Z,72.25
2019-02-04T12:31:58.375Z,72.38
2019-02-04T12:32:58.506Z,72.09
2019-02-04T12:33:58.637Z,71.43
2019-02-04T12:34:58.769Z,71.71
2019-02-04T12:36:01.908Z,71.71
2019-02-04T12:36:59.035Z,71.33
2019-02-04T12:37:59.172Z,71.90
2019-02-04T12:38:59.303Z,71.39
2019-02-04T12:39:59.447Z,70.73
2019-02-04T12:40:59.586Z,70.82
2019-02-04T12:41:59.717Z,71.01
2019-02-04T12:42:59.852Z,70.73
2019-02-04T12:43:59.981Z,71.30
2019-02-04T12:45:00.328Z,71.30
2019-02-04T12:46:00.239Z,71.58
2019-02-04T12:47:00.365Z,71.43
2019-02-04T12:48:00.982Z,71.01
2019-02-04T12:49:00.637Z,70.73
2019-02-04T12:50:00.844Z,71.04
2019-02-04T12:51:00.851Z,70.19
2019-02-04T12:52:00.988Z,70.29
2019-02-04T12:53:01.114Z,70.19
2019-02-04T12:54:01.245Z,69.53